createdAt,value
2019-01-06T00:05:19.020Z,91.60
2019-01-06T00:11:41.765Z,91.70
2019-01-06T00:17:53.408Z,91.20
2019-01-06T00:23:59.268Z,91.60
2019-01-06T00:30:08.040Z,92.00
2019-01-06T00:36:13.896Z,91.80
2019-01-06T00:42:19.809Z,92.20
2019-01-06T00:48:25.666Z,92.50
2019-01-06T00:54:47.772Z,92.40
2019-01-06T01:01:09.879Z,92.50
2019-01-06T01:07:30.797Z,92.70
2019-01-06T01:13:55.316Z,92.40
2019-01-06T01:20:07.012Z,92.20
2019-01-06T01:26:29.164Z,92.10
2019-01-06T01:32:37.478Z,91.90
2019-01-06T01:38:43.383Z,91.70
2019-01-06T01:44:58.445Z,91.60
2019-01-06T01:51:07.031Z,91.70
2019-01-06T01:57:12.888Z,91.80
2019-01-06T02:03:35.255Z,91.60
2019-01-06T02:09:59.880Z,91.40
2019-01-06T02:16:09.720Z,91.10
2019-01-06T02:22:24.403Z,90.80
2019-01-06T02:28:46.836Z,90.70
2019-01-06T02:34:55.609Z,90.30
2019-01-06T02:41:16.387Z,90.10
2019-01-06T02:47:38.493Z,89.70
2019-01-06T02:53:53.319Z,89.80
2019-01-06T03:00:17.648Z,88.70
2019-01-06T03:06:35.758Z,87.80
2019-01-06T03:12:59.948Z,88.60
2019-01-06T03:19:09.655Z,88.90
2019-01-06T03:25:31.551Z,88.30
2019-01-06T03:31:43.218Z,89.00
2019-01-06T03:38:05.312Z,89.20
2019-01-06T03:44:14.099Z,89.90
2019-01-06T03:50:19.928Z,90.00
2019-01-06T03:56:28.458Z,90.30
2019-01-06T04:02:46.597Z,90.50
2019-01-06T04:09:08.912Z,90.50
2019-01-06T04:15:14.826Z,90.30
2019-01-06T04:21:38.091Z,90.60
2019-01-06T04:28:02.056Z,90.60
2019-01-06T04:34:17.108Z,90.70
2019-01-06T04:40:39.153Z,91.10
2019-01-06T04:46:45.076Z,91.30
2019-01-06T04:53:07.280Z,91.40
2019-01-06T04:59:22.146Z,91.70
2019-01-06T05:05:30.898Z,92.00
2019-01-06T05:11:45.735Z,92.40
2019-01-06T05:18:07.832Z,92.90
2019-01-06T05:24:14.442Z,93.00
2019-01-06T05:30:36.542Z,93.20
2019-01-06T05:36:48.420Z,93.00
2019-01-06T05:42:57.302Z,92.50
2019-01-06T05:49:19.373Z,92.30
2019-01-06T05:55:25.336Z,92.00
2019-01-06T06:01:31.227Z,92.20
2019-01-06T06:07:39.741Z,91.80
2019-01-06T06:14:00.764Z,92.20
2019-01-06T06:20:13.660Z,91.60
2019-01-06T06:26:35.497Z,91.60
2019-01-06T06:32:41.383Z,91.30
2019-01-06T06:38:47.288Z,91.00
2019-01-06T06:44:55.840Z,91.00
2019-01-06T06:51:16.736Z,91.10
2019-01-06T06:58:15.932Z,91.20
2019-01-06T07:04:34.023Z,91.30
2019-01-06T07:10:39.940Z,91.40
2019-01-06T07:17:20.758Z,91.60
2019-01-06T07:23:29.711Z,91.80
2019-01-06T07:29:36.639Z,92.10
2019-01-06T07:35:42.516Z,92.10
2019-01-06T07:41:51.068Z,92.10
2019-01-06T07:48:00.065Z,91.80
2019-01-06T07:54:22.092Z,90.60
2019-01-06T08:00:27.959Z,90.40
2019-01-06T08:06:33.815Z,89.40
2019-01-06T08:12:54.974Z,87.50
2019-01-06T08:19:12.968Z,86.80
2019-01-06T08:25:35.184Z,88.20
2019-01-06T08:31:58.236Z,89.30
2019-01-06T08:38:20.527Z,89.50
2019-01-06T08:44:38.632Z,89.70
2019-01-06T08:51:00.622Z,89.40
2019-01-06T08:57:18.532Z,86.20
2019-01-06T09:03:24.522Z,83.80
2019-01-06T09:09:30.504Z,82.70
2019-01-06T09:15:36.328Z,82.70
2019-01-06T09:21:42.389Z,83.90
2019-01-06T09:28:04.778Z,83.80
2019-01-06T09:34:20.876Z,83.80
2019-01-06T09:40:27.170Z,84.70
2019-01-06T09:46:33.323Z,85.40
2019-01-06T09:52:39.188Z,85.40
2019-01-06T09:58:47.501Z,87.00
2019-01-06T10:04:56.048Z,87.90
2019-01-06T10:11:01.901Z,89.40
2019-01-06T10:17:10.601Z,88.60
2019-01-06T10:23:22.044Z,88.90
2019-01-06T10:29:44.404Z,86.20
2019-01-06T10:36:09.329Z,85.40
2019-01-06T10:42:21.020Z,83.50
2019-01-06T10:48:45.302Z,83.60
2019-01-06T10:55:07.050Z,83.40
2019-01-06T11:01:29.207Z,82.80
2019-01-06T11:07:50.431Z,83.10
2019-01-06T11:14:14.393Z,82.10
2019-01-06T11:20:26.052Z,82.50
2019-01-06T11:26:48.537Z,80.20
2019-01-06T11:33:00.684Z,80.40
2019-01-06T11:39:20.376Z,78.30
2019-01-06T11:45:29.107Z,77.80
2019-01-06T11:51:37.628Z,78.30
2019-01-06T11:57:55.368Z,77.90
2019-01-06T12:04:01.244Z,79.70
2019-01-06T12:10:17.692Z,78.60
2019-01-06T12:16:32.507Z,77.40
2019-01-06T12:22:44.448Z,78.40
2019-01-06T12:28:59.382Z,76.50
2019-01-06T12:35:05.228Z,76.80
2019-01-06T12:41:11.823Z,78.30
2019-01-06T12:47:23.515Z,77.90
2019-01-06T12:53:45.784Z,80.20
2019-01-06T13:00:07.617Z,77.60
2019-01-06T13:06:13.600Z,76.60
2019-01-06T13:12:21.908Z,76.80
2019-01-06T13:18:36.840Z,78.20
2019-01-06T13:24:42.760Z,78.20
2019-01-06T13:31:05.188Z,79.40
2019-01-06T13:37:18.000Z,77.20
2019-01-06T13:43:24.720Z,75.10
2019-01-06T13:49:30.623Z,75.70
2019-01-06T13:55:53.044Z,77.20
2019-01-06T14:02:13.960Z,78.90
2019-01-06T14:08:34.864Z,81.10
2019-01-06T14:14:43.917Z,82.50
2019-01-06T14:21:06.004Z,82.70
2019-01-06T14:27:21.052Z,83.10
2019-01-06T14:33:29.676Z,83.00
2019-01-06T14:39:35.544Z,83.50
2019-01-06T14:45:42.225Z,82.70
2019-01-06T14:51:51.012Z,82.70
2019-01-06T14:57:56.856Z,82.60
2019-01-06T15:04:08.444Z,84.00
2019-01-06T15:10:14.430Z,81.40
2019-01-06T15:16:29.729Z,81.50
2019-01-06T15:22:52.240Z,80.40
2019-01-06T15:28:58.145Z,80.80
2019-01-06T15:35:09.842Z,81.40
2019-01-06T15:41:21.844Z,80.50
2019-01-06T15:47:40.513Z,81.10
2019-01-06T15:53:49.208Z,81.30
2019-01-06T16:00:11.619Z,81.70
2019-01-06T16:06:35.043Z,82.00
2019-01-06T16:12:57.411Z,82.50
2019-01-06T16:19:12.419Z,82.80
2019-01-06T16:25:33.588Z,82.00
2019-01-06T16:31:54.585Z,81.60
2019-01-06T16:38:18.566Z,81.90
2019-01-06T16:44:27.412Z,81.70
2019-01-06T16:50:34.132Z,81.70
2019-01-06T16:56:40.104Z,82.40
2019-01-06T17:02:51.681Z,82.70
2019-01-06T17:09:12.642Z,83.70
2019-01-06T17:15:25.650Z,83.80
2019-01-06T17:21:43.620Z,83.10
2019-01-06T17:28:04.777Z,82.70
2019-01-06T17:34:13.740Z,82.50
2019-01-06T17:40:22.328Z,83.10
2019-01-06T17:46:44.461Z,83.80
2019-01-06T17:53:09.236Z,84.20
2019-01-06T17:59:15.320Z,83.20
2019-01-06T18:05:24.264Z,84.10
2019-01-06T18:11:41.920Z,84.40
2019-01-06T18:17:56.576Z,84.70
2019-01-06T18:24:14.460Z,84.10
2019-01-06T18:30:36.824Z,84.60
2019-01-06T18:37:04.560Z,85.00
2019-01-06T18:43:27.004Z,85.10
2019-01-06T18:49:45.645Z,85.00
2019-01-06T18:56:09.736Z,84.90
2019-01-06T19:02:18.376Z,84.40
2019-01-06T19:08:36.248Z,85.30
2019-01-06T19:15:00.366Z,85.70
2019-01-06T19:21:09.016Z,84.50
2019-01-06T19:27:30.237Z,85.10
2019-01-06T19:33:36.443Z,83.10
2019-01-06T19:39:42.324Z,82.10
2019-01-06T19:46:04.081Z,81.20
2019-01-06T19:52:27.492Z,80.00
2019-01-06T19:58:39.975Z,80.20
2019-01-06T20:05:01.850Z,80.20
2019-01-06T20:11:25.666Z,81.20
2019-01-06T20:17:37.344Z,80.70
2019-01-06T20:23:45.708Z,80.60
2019-01-06T20:30:07.832Z,81.30
2019-01-06T20:36:19.766Z,80.80
2019-01-06T20:42:25.643Z,80.80
2019-01-06T20:48:40.324Z,80.90
2019-01-06T20:55:02.516Z,81.50
2019-01-06T21:01:12.376Z,82.10
2019-01-06T21:07:21.080Z,81.50
2019-01-06T21:13:29.931Z,82.50
2019-01-06T21:19:35.940Z,82.70
2019-01-06T21:25:50.341Z,82.30
2019-01-06T21:31:56.304Z,82.40
2019-01-06T21:38:07.876Z,83.10
2019-01-06T21:44:22.352Z,83.30
2019-01-06T21:50:33.933Z,83.50
2019-01-06T21:56:40.381Z,83.80
2019-01-06T22:03:02.531Z,84.70
2019-01-06T22:09:14.521Z,84.40
2019-01-06T22:15:20.473Z,84.60
2019-01-06T22:21:35.305Z,85.20
2019-01-06T22:27:44.131Z,85.20
2019-01-06T22:34:06.750Z,85.70
2019-01-06T22:40:12.672Z,86.30
2019-01-06T22:46:27.863Z,86.80
2019-01-06T22:52:37.131Z,86.90
2019-01-06T22:58:52.883Z,86.10
2019-01-06T23:05:11.860Z,86.40
2019-01-06T23:11:34.248Z,86.60
2019-01-06T23:17:43.035Z,87.00
2019-01-06T23:23:55.397Z,86.50
2019-01-06T23:30:17.757Z,85.50
2019-01-06T23:36:26.716Z,86.60
2019-01-06T23:42:48.517Z,86.00
2019-01-06T23:49:06.499Z,87.00
2019-01-06T23:55:28.840Z,86.80
